Weather at Amougies Airfield

Public forecast

Using degrees Celsius for public forecast. Weather courtesy of forecast.io.

Closest aviation weather report (METAR) to Amougies Airfield

Closest report is Chièvres Air Base, 16.5 nm (30.5 km) SE.

2024/05/25 15:55 (retrieved 31 minutes ago)

EBCV 251555Z AUTO 24005KT 9999 SCT055/// BKN075/// BKN095/// 19/09 Q1016 BLU

Closest aviation forecast (TAF) to Amougies Airfield

Forecast is more than 12 hours old.

Closest forecast is Chièvres Air Base, 16.5 nm (30.5 km) SE.

2024/05/23 19:12 (retrieved 2 days ago)

TAF EBCV 231541Z 2319/2407 VRB03KT 9999 FEW025 SCT050 TEMPO 2319/2321 24008G18KT 6000 -SHRA FEW015TCU SCT050 PROB30 TEMPO 2319/2321 24008G20KT 3000 -TSRA SCT012CB SCT050 TEMPO 2400/2407 5000 BR TEMPO 2400/2407 2000 BR BY EBWM